sensor_id;sensor_type;location;lat;lon;timestamp;pressure;altitude;pressure_sealevel;temperature;humidity
35443;BME280;21561;55.654;37.592;2022-12-18T00:01:25;98779.56;;;-4.97;100.00
35443;BME280;21561;55.654;37.592;2022-12-18T00:03:54;98768.34;;;-5.04;100.00
35443;BME280;21561;55.654;37.592;2022-12-18T00:06:22;98764.75;;;-5.09;100.00
35443;BME280;21561;55.654;37.592;2022-12-18T00:08:50;98760.25;;;-5.16;100.00
35443;BME280;21561;55.654;37.592;2022-12-18T00:11:21;98754.31;;;-5.17;100.00
35443;BME280;21561;55.654;37.592;2022-12-18T00:13:48;98753.53;;;-5.16;100.00
35443;BME280;21561;55.654;37.592;2022-12-18T00:16:17;98756.13;;;-5.14;100.00
35443;BME280;21561;55.654;37.592;2022-12-18T00:18:49;98748.47;;;-5.16;100.00
35443;BME280;21561;55.654;37.592;2022-12-18T00:21:16;98730.56;;;-5.21;100.00
35443;BME280;21561;55.654;37.592;2022-12-18T00:23:46;98744.03;;;-5.22;100.00
35443;BME280;21561;55.654;37.592;2022-12-18T00:26:21;98738.09;;;-5.22;100.00
35443;BME280;21561;55.654;37.592;2022-12-18T00:28:49;98748.81;;;-5.28;100.00
35443;BME280;21561;55.654;37.592;2022-12-18T00:31:19;98743.88;;;-5.25;100.00
35443;BME280;21561;55.654;37.592;2022-12-18T00:33:47;98741.34;;;-5.25;100.00
35443;BME280;21561;55.654;37.592;2022-12-18T00:36:24;98736.38;;;-5.23;100.00
35443;BME280;21561;55.654;37.592;2022-12-18T00:38:53;98731.38;;;-5.22;100.00
35443;BME280;21561;55.654;37.592;2022-12-18T00:41:20;98723.78;;;-5.22;100.00
35443;BME280;21561;55.654;37.592;2022-12-18T00:44:06;98715.38;;;-5.21;100.00
35443;BME280;21561;55.654;37.592;2022-12-18T00:46:33;98716.88;;;-5.26;100.00
35443;BME280;21561;55.654;37.592;2022-12-18T00:49:01;98715.00;;;-5.30;100.00
35443;BME280;21561;55.654;37.592;2022-12-18T00:51:28;98701.44;;;-5.32;100.00
35443;BME280;21561;55.654;37.592;2022-12-18T00:53:55;98697.16;;;-5.34;100.00
35443;BME280;21561;55.654;37.592;2022-12-18T00:56:22;98692.09;;;-5.34;100.00
35443;BME280;21561;55.654;37.592;2022-12-18T00:58:49;98680.97;;;-5.38;100.00
35443;BME280;21561;55.654;37.592;2022-12-18T01:01:16;98657.28;;;-5.40;100.00
35443;BME280;21561;55.654;37.592;2022-12-18T01:03:44;98673.19;;;-5.43;100.00
35443;BME280;21561;55.654;37.592;2022-12-18T01:06:13;98674.88;;;-5.43;100.00
35443;BME280;21561;55.654;37.592;2022-12-18T01:08:40;98672.22;;;-5.46;100.00
35443;BME280;21561;55.654;37.592;2022-12-18T01:11:15;98666.41;;;-5.44;100.00
35443;BME280;21561;55.654;37.592;2022-12-18T01:13:43;98662.88;;;-5.47;100.00
35443;BME280;21561;55.654;37.592;2022-12-18T01:16:14;98655.44;;;-5.44;100.00
35443;BME280;21561;55.654;37.592;2022-12-18T01:18:42;98663.72;;;-5.48;100.00
35443;BME280;21561;55.654;37.592;2022-12-18T01:21:11;98657.84;;;-5.47;100.00
35443;BME280;21561;55.654;37.592;2022-12-18T01:23:38;98642.63;;;-5.49;100.00
35443;BME280;21561;55.654;37.592;2022-12-18T01:26:11;98659.56;;;-5.46;100.00
35443;BME280;21561;55.654;37.592;2022-12-18T01:28:38;98663.56;;;-5.51;100.00
35443;BME280;21561;55.654;37.592;2022-12-18T01:31:33;98652.91;;;-5.44;100.00
35443;BME280;21561;55.654;37.592;2022-12-18T01:34:00;98668.63;;;-5.51;100.00
35443;BME280;21561;55.654;37.592;2022-12-18T01:36:30;98674.44;;;-5.54;100.00
35443;BME280;21561;55.654;37.592;2022-12-18T01:38:59;98656.69;;;-5.56;100.00
35443;BME280;21561;55.654;37.592;2022-12-18T01:41:29;98660.00;;;-5.57;100.00
35443;BME280;21561;55.654;37.592;2022-12-18T01:47:27;98642.50;;;-5.52;100.00
35443;BME280;21561;55.654;37.592;2022-12-18T01:49:56;98648.16;;;-5.58;100.00
35443;BME280;21561;55.654;37.592;2022-12-18T01:52:24;98665.78;;;-5.59;100.00
35443;BME280;21561;55.654;37.592;2022-12-18T01:54:53;98645.56;;;-5.59;100.00
35443;BME280;21561;55.654;37.592;2022-12-18T01:57:20;98637.06;;;-5.61;100.00
35443;BME280;21561;55.654;37.592;2022-12-18T01:59:52;98653.78;;;-5.65;100.00
35443;BME280;21561;55.654;37.592;2022-12-18T02:02:21;98655.47;;;-5.64;100.00
35443;BME280;21561;55.654;37.592;2022-12-18T02:04:48;98646.06;;;-5.68;100.00
35443;BME280;21561;55.654;37.592;2022-12-18T02:07:17;98639.16;;;-5.72;100.00
35443;BME280;21561;55.654;37.592;2022-12-18T02:10:00;98642.59;;;-5.70;100.00
35443;BME280;21561;55.654;37.592;2022-12-18T02:12:39;98650.19;;;-5.70;100.00
35443;BME280;21561;55.654;37.592;2022-12-18T02:17:44;98659.25;;;-5.75;100.00
35443;BME280;21561;55.654;37.592;2022-12-18T02:20:16;98667.59;;;-5.76;100.00
35443;BME280;21561;55.654;37.592;2022-12-18T02:28:51;98655.03;;;-5.75;100.00
35443;BME280;21561;55.654;37.592;2022-12-18T02:31:27;98630.53;;;-5.77;100.00
35443;BME280;21561;55.654;37.592;2022-12-18T02:33:56;98633.47;;;-5.87;100.00
35443;BME280;21561;55.654;37.592;2022-12-18T02:36:26;98648.63;;;-5.87;100.00
35443;BME280;21561;55.654;37.592;2022-12-18T02:38:54;98660.34;;;-5.89;100.00
35443;BME280;21561;55.654;37.592;2022-12-18T02:41:22;98656.13;;;-5.89;100.00
35443;BME280;21561;55.654;37.592;2022-12-18T02:43:56;98648.47;;;-5.90;100.00
35443;BME280;21561;55.654;37.592;2022-12-18T02:46:40;98652.59;;;-5.92;100.00
35443;BME280;21561;55.654;37.592;2022-12-18T02:55:08;98664.88;;;-6.02;100.00
35443;BME280;21561;55.654;37.592;2022-12-18T03:00:28;98638.78;;;-6.02;100.00
35443;BME280;21561;55.654;37.592;2022-12-18T03:03:14;98637.19;;;-6.00;100.00
35443;BME280;21561;55.654;37.592;2022-12-18T03:05:50;98631.38;;;-5.98;100.00
35443;BME280;21561;55.654;37.592;2022-12-18T03:08:22;98646.44;;;-6.01;100.00
35443;BME280;21561;55.654;37.592;2022-12-18T03:11:29;98637.78;;;-6.06;100.00
35443;BME280;21561;55.654;37.592;2022-12-18T03:14:10;98640.25;;;-6.07;100.00
35443;BME280;21561;55.654;37.592;2022-12-18T03:16:40;98645.22;;;-6.09;100.00
35443;BME280;21561;55.654;37.592;2022-12-18T03:19:11;98647.75;;;-6.09;100.00
35443;BME280;21561;55.654;37.592;2022-12-18T03:21:51;98652.72;;;-6.10;100.00
35443;BME280;21561;55.654;37.592;2022-12-18T03:24:19;98659.44;;;-6.11;100.00
35443;BME280;21561;55.654;37.592;2022-12-18T03:26:52;98651.94;;;-6.09;100.00
35443;BME280;21561;55.654;37.592;2022-12-18T03:29:26;98644.28;;;-6.11;100.00
35443;BME280;21561;55.654;37.592;2022-12-18T03:32:08;98648.97;;;-6.20;100.00
35443;BME280;21561;55.654;37.592;2022-12-18T03:34:39;98661.06;;;-6.13;100.00
35443;BME280;21561;55.654;37.592;2022-12-18T03:37:08;98656.53;;;-6.20;100.00
35443;BME280;21561;55.654;37.592;2022-12-18T03:39:35;98668.94;;;-6.25;100.00
35443;BME280;21561;55.654;37.592;2022-12-18T03:49:26;98660.25;;;-6.31;100.00
35443;BME280;21561;55.654;37.592;2022-12-18T03:52:04;98641.31;;;-6.22;100.00
35443;BME280;21561;55.654;37.592;2022-12-18T03:54:34;98641.06;;;-6.28;100.00
35443;BME280;21561;55.654;37.592;2022-12-18T03:57:09;98654.53;;;-6.27;100.00
35443;BME280;21561;55.654;37.592;2022-12-18T03:59:39;98636.72;;;-6.30;100.00
35443;BME280;21561;55.654;37.592;2022-12-18T04:02:07;98645.22;;;-6.28;100.00
35443;BME280;21561;55.654;37.592;2022-12-18T04:04:37;98648.44;;;-6.32;100.00
35443;BME280;21561;55.654;37.592;2022-12-18T04:07:06;98635.25;;;-6.25;100.00
35443;BME280;21561;55.654;37.592;2022-12-18T04:09:36;98648.44;;;-6.32;100.00
35443;BME280;21561;55.654;37.592;2022-12-18T04:12:05;98667.03;;;-6.30;100.00
35443;BME280;21561;55.654;37.592;2022-12-18T04:14:32;98690.41;;;-6.35;100.00
35443;BME280;21561;55.654;37.592;2022-12-18T04:17:02;98676.94;;;-6.35;100.00
35443;BME280;21561;55.654;37.592;2022-12-18T04:19:29;98697.19;;;-6.34;100.00
35443;BME280;21561;55.654;37.592;2022-12-18T04:21:56;98695.47;;;-6.35;100.00
35443;BME280;21561;55.654;37.592;2022-12-18T04:24:23;98699.69;;;-6.34;100.00
35443;BME280;21561;55.654;37.592;2022-12-18T04:26:50;98697.91;;;-6.36;100.00
35443;BME280;21561;55.654;37.592;2022-12-18T04:29:16;98686.97;;;-6.37;100.00
35443;BME280;21561;55.654;37.592;2022-12-18T04:31:43;98684.56;;;-6.34;100.00
35443;BME280;21561;55.654;37.592;2022-12-18T04:34:10;98717.19;;;-6.38;100.00
35443;BME280;21561;55.654;37.592;2022-12-18T04:36:37;98716.19;;;-6.42;100.00
35443;BME280;21561;55.654;37.592;2022-12-18T04:39:04;98708.59;;;-6.42;100.00
35443;BME280;21561;55.654;37.592;2022-12-18T04:41:31;98746.63;;;-6.39;100.00
35443;BME280;21561;55.654;37.592;2022-12-18T04:43:58;98737.16;;;-6.43;100.00
35443;BME280;21561;55.654;37.592;2022-12-18T04:46:24;98731.25;;;-6.43;100.00
35443;BME280;21561;55.654;37.592;2022-12-18T04:48:51;98742.22;;;-6.43;100.00
35443;BME280;21561;55.654;37.592;2022-12-18T04:51:18;98726.22;;;-6.43;100.00
35443;BME280;21561;55.654;37.592;2022-12-18T04:53:52;98753.22;;;-6.41;100.00
35443;BME280;21561;55.654;37.592;2022-12-18T04:56:19;98748.84;;;-6.45;100.00
35443;BME280;21561;55.654;37.592;2022-12-18T04:58:46;98765.44;;;-6.50;100.00
35443;BME280;21561;55.654;37.592;2022-12-18T05:01:15;98735.44;;;-6.44;100.00
35443;BME280;21561;55.654;37.592;2022-12-18T05:03:42;98727.56;;;-6.50;100.00
35443;BME280;21561;55.654;37.592;2022-12-18T05:06:10;98747.13;;;-6.46;100.00
35443;BME280;21561;55.654;37.592;2022-12-18T05:08:37;98723.47;;;-6.48;100.00
35443;BME280;21561;55.654;37.592;2022-12-18T05:11:07;98755.34;;;-6.50;100.00
35443;BME280;21561;55.654;37.592;2022-12-18T05:13:35;98756.22;;;-6.49;100.00
35443;BME280;21561;55.654;37.592;2022-12-18T05:16:02;98755.50;;;-6.47;100.00
35443;BME280;21561;55.654;37.592;2022-12-18T05:18:29;98748.59;;;-6.51;100.00
35443;BME280;21561;55.654;37.592;2022-12-18T05:20:57;98747.69;;;-6.52;100.00
35443;BME280;21561;55.654;37.592;2022-12-18T05:23:24;98761.13;;;-6.53;100.00
35443;BME280;21561;55.654;37.592;2022-12-18T05:25:57;98765.75;;;-6.44;100.00
35443;BME280;21561;55.654;37.592;2022-12-18T05:28:25;98787.53;;;-6.46;100.00
35443;BME280;21561;55.654;37.592;2022-12-18T05:30:54;98780.47;;;-6.53;100.00
35443;BME280;21561;55.654;37.592;2022-12-18T05:33:23;98798.75;;;-6.57;100.00
35443;BME280;21561;55.654;37.592;2022-12-18T05:35:55;98805.03;;;-6.49;100.00
35443;BME280;21561;55.654;37.592;2022-12-18T05:38:24;98809.16;;;-6.51;100.00
35443;BME280;21561;55.654;37.592;2022-12-18T05:40:51;98802.38;;;-6.52;100.00
35443;BME280;21561;55.654;37.592;2022-12-18T05:43:20;98792.28;;;-6.52;100.00
35443;BME280;21561;55.654;37.592;2022-12-18T05:45:49;98807.41;;;-6.52;100.00
35443;BME280;21561;55.654;37.592;2022-12-18T05:48:16;98807.56;;;-6.49;100.00
35443;BME280;21561;55.654;37.592;2022-12-18T05:50:45;98803.19;;;-6.53;100.00
35443;BME280;21561;55.654;37.592;2022-12-18T05:53:14;98824.00;;;-6.57;100.00
35443;BME280;21561;55.654;37.592;2022-12-18T05:55:42;98816.50;;;-6.56;100.00
35443;BME280;21561;55.654;37.592;2022-12-18T05:58:11;98824.16;;;-6.54;100.00
35443;BME280;21561;55.654;37.592;2022-12-18T06:00:39;98831.44;;;-6.60;100.00
35443;BME280;21561;55.654;37.592;2022-12-18T06:03:08;98818.00;;;-6.59;100.00
35443;BME280;21561;55.654;37.592;2022-12-18T06:05:40;98831.28;;;-6.63;100.00
35443;BME280;21561;55.654;37.592;2022-12-18T06:08:07;98845.50;;;-6.65;100.00
35443;BME280;21561;55.654;37.592;2022-12-18T06:10:34;98854.00;;;-6.63;100.00
35443;BME280;21561;55.654;37.592;2022-12-18T06:13:01;98847.22;;;-6.64;100.00
35443;BME280;21561;55.654;37.592;2022-12-18T06:15:28;98855.72;;;-6.62;100.00
35443;BME280;21561;55.654;37.592;2022-12-18T06:17:55;98850.38;;;-6.68;100.00
35443;BME280;21561;55.654;37.592;2022-12-18T06:20:22;98856.38;;;-6.66;100.00
35443;BME280;21561;55.654;37.592;2022-12-18T06:22:49;98853.69;;;-6.69;100.00
35443;BME280;21561;55.654;37.592;2022-12-18T06:25:16;98872.00;;;-6.74;100.00
35443;BME280;21561;55.654;37.592;2022-12-18T06:27:43;98872.84;;;-6.73;100.00
35443;BME280;21561;55.654;37.592;2022-12-18T06:30:10;98862.06;;;-6.70;100.00
35443;BME280;21561;55.654;37.592;2022-12-18T06:32:38;98868.69;;;-6.73;100.00
35443;BME280;21561;55.654;37.592;2022-12-18T06:35:05;98866.66;;;-6.80;100.00
35443;BME280;21561;55.654;37.592;2022-12-18T06:37:32;98886.03;;;-6.79;100.00
35443;BME280;21561;55.654;37.592;2022-12-18T06:39:58;98914.81;;;-6.75;100.00
35443;BME280;21561;55.654;37.592;2022-12-18T06:42:29;98898.03;;;-6.75;100.00
35443;BME280;21561;55.654;37.592;2022-12-18T06:44:56;98910.50;;;-6.78;100.00
35443;BME280;21561;55.654;37.592;2022-12-18T06:47:23;98901.34;;;-6.76;100.00
35443;BME280;21561;55.654;37.592;2022-12-18T06:49:49;98926.72;;;-6.73;100.00
35443;BME280;21561;55.654;37.592;2022-12-18T06:52:16;98950.75;;;-6.63;100.00
35443;BME280;21561;55.654;37.592;2022-12-18T06:54:43;98958.25;;;-6.64;100.00
35443;BME280;21561;55.654;37.592;2022-12-18T06:57:10;98953.06;;;-6.67;100.00
35443;BME280;21561;55.654;37.592;2022-12-18T06:59:37;98939.47;;;-6.69;100.00
35443;BME280;21561;55.654;37.592;2022-12-18T07:02:03;98945.13;;;-6.57;100.00
35443;BME280;21561;55.654;37.592;2022-12-18T07:04:31;98945.94;;;-6.58;100.00
35443;BME280;21561;55.654;37.592;2022-12-18T07:06:58;98943.44;;;-6.58;100.00
35443;BME280;21561;55.654;37.592;2022-12-18T07:09:25;98947.59;;;-6.59;100.00
35443;BME280;21561;55.654;37.592;2022-12-18T07:11:52;98950.84;;;-6.61;100.00
35443;BME280;21561;55.654;37.592;2022-12-18T07:14:19;98947.53;;;-6.60;100.00
35443;BME280;21561;55.654;37.592;2022-12-18T07:16:46;98955.22;;;-6.57;100.00
35443;BME280;21561;55.654;37.592;2022-12-18T07:19:13;98965.66;;;-6.51;100.00
35443;BME280;21561;55.654;37.592;2022-12-18T07:21:39;98984.25;;;-6.49;100.00
35443;BME280;21561;55.654;37.592;2022-12-18T07:24:06;98990.91;;;-6.51;100.00
35443;BME280;21561;55.654;37.592;2022-12-18T07:26:33;98983.25;;;-6.53;100.00
35443;BME280;21561;55.654;37.592;2022-12-18T07:29:00;99001.00;;;-6.51;100.00
35443;BME280;21561;55.654;37.592;2022-12-18T07:31:27;98996.56;;;-6.55;100.00
35443;BME280;21561;55.654;37.592;2022-12-18T07:33:55;98970.22;;;-6.44;100.00
35443;BME280;21561;55.654;37.592;2022-12-18T07:36:22;98993.63;;;-6.46;100.00
35443;BME280;21561;55.654;37.592;2022-12-18T07:38:50;98983.25;;;-6.53;100.00
35443;BME280;21561;55.654;37.592;2022-12-18T07:41:18;98992.78;;;-6.47;100.00
35443;BME280;21561;55.654;37.592;2022-12-18T07:43:45;98993.25;;;-6.54;100.00
35443;BME280;21561;55.654;37.592;2022-12-18T07:46:13;99006.03;;;-6.51;100.00
35443;BME280;21561;55.654;37.592;2022-12-18T07:48:41;99026.38;;;-6.48;100.00
35443;BME280;21561;55.654;37.592;2022-12-18T07:51:12;99007.75;;;-6.50;100.00
35443;BME280;21561;55.654;37.592;2022-12-18T07:53:39;99015.31;;;-6.50;100.00
35443;BME280;21561;55.654;37.592;2022-12-18T07:56:09;99020.81;;;-6.41;100.00
35443;BME280;21561;55.654;37.592;2022-12-18T07:58:55;99014.84;;;-6.43;100.00
35443;BME280;21561;55.654;37.592;2022-12-18T08:01:22;99024.00;;;-6.45;100.00
35443;BME280;21561;55.654;37.592;2022-12-18T08:03:49;99038.22;;;-6.47;100.00
35443;BME280;21561;55.654;37.592;2022-12-18T08:06:18;98982.19;;;-6.40;100.00
35443;BME280;21561;55.654;37.592;2022-12-18T08:08:53;99039.22;;;-6.43;100.00
35443;BME280;21561;55.654;37.592;2022-12-18T08:11:22;99053.81;;;-6.38;100.00
35443;BME280;21561;55.654;37.592;2022-12-18T08:13:49;99061.31;;;-6.39;99.65
35443;BME280;21561;55.654;37.592;2022-12-18T08:16:16;99053.81;;;-6.38;100.00
35443;BME280;21561;55.654;37.592;2022-12-18T08:18:44;99070.38;;;-6.43;99.42
35443;BME280;21561;55.654;37.592;2022-12-18T08:21:20;99071.41;;;-6.39;100.00
35443;BME280;21561;55.654;37.592;2022-12-18T08:23:50;99063.34;;;-6.32;100.00
35443;BME280;21561;55.654;37.592;2022-12-18T08:26:19;99054.84;;;-6.34;100.00
35443;BME280;21561;55.654;37.592;2022-12-18T08:28:46;99070.72;;;-6.37;100.00
35443;BME280;21561;55.654;37.592;2022-12-18T08:31:13;99073.53;;;-6.30;100.00
35443;BME280;21561;55.654;37.592;2022-12-18T08:33:40;99085.06;;;-6.36;100.00
35443;BME280;21561;55.654;37.592;2022-12-18T08:36:09;99055.22;;;-6.26;99.99
35443;BME280;21561;55.654;37.592;2022-12-18T08:38:36;99088.50;;;-6.34;100.00
35443;BME280;21561;55.654;37.592;2022-12-18T08:41:05;99089.41;;;-6.33;100.00
35443;BME280;21561;55.654;37.592;2022-12-18T08:43:32;99093.66;;;-6.32;100.00
35443;BME280;21561;55.654;37.592;2022-12-18T08:46:19;99092.94;;;-6.29;100.00
35443;BME280;21561;55.654;37.592;2022-12-18T08:48:47;99101.75;;;-6.21;100.00
35443;BME280;21561;55.654;37.592;2022-12-18T08:51:16;99099.03;;;-6.26;100.00
35443;BME280;21561;55.654;37.592;2022-12-18T08:53:44;99095.94;;;-6.20;100.00
35443;BME280;21561;55.654;37.592;2022-12-18T08:56:12;99083.03;;;-6.08;100.00
35443;BME280;21561;55.654;37.592;2022-12-18T08:58:40;99068.53;;;-6.12;100.00
35443;BME280;21561;55.654;37.592;2022-12-18T09:01:09;99082.66;;;-6.16;100.00
35443;BME280;21561;55.654;37.592;2022-12-18T09:03:37;99091.09;;;-6.16;100.00
35443;BME280;21561;55.654;37.592;2022-12-18T09:06:05;99095.47;;;-6.13;100.00
35443;BME280;21561;55.654;37.592;2022-12-18T09:08:35;99093.09;;;-6.10;100.00
35443;BME280;21561;55.654;37.592;2022-12-18T09:11:03;99102.72;;;-6.03;100.00
35443;BME280;21561;55.654;37.592;2022-12-18T09:13:30;99109.19;;;-6.08;100.00
35443;BME280;21561;55.654;37.592;2022-12-18T09:15:57;99120.44;;;-6.01;100.00
35443;BME280;21561;55.654;37.592;2022-12-18T09:18:24;99142.97;;;-6.06;100.00
35443;BME280;21561;55.654;37.592;2022-12-18T09:20:54;99141.31;;;-6.05;100.00
35443;BME280;21561;55.654;37.592;2022-12-18T09:23:21;99137.44;;;-5.99;100.00
35443;BME280;21561;55.654;37.592;2022-12-18T09:25:48;99135.84;;;-5.97;100.00
35443;BME280;21561;55.654;37.592;2022-12-18T09:28:17;99158.84;;;-5.90;100.00
35443;BME280;21561;55.654;37.592;2022-12-18T09:30:47;99129.41;;;-5.90;100.00
35443;BME280;21561;55.654;37.592;2022-12-18T09:33:15;99158.06;;;-5.89;100.00
35443;BME280;21561;55.654;37.592;2022-12-18T09:35:44;99153.19;;;-5.86;100.00
35443;BME280;21561;55.654;37.592;2022-12-18T09:38:16;99160.88;;;-5.83;100.00
35443;BME280;21561;55.654;37.592;2022-12-18T09:40:46;99167.69;;;-5.82;100.00
35443;BME280;21561;55.654;37.592;2022-12-18T09:43:37;99161.06;;;-5.80;100.00
35443;BME280;21561;55.654;37.592;2022-12-18T09:46:11;99170.50;;;-5.76;100.00
35443;BME280;21561;55.654;37.592;2022-12-18T09:48:47;99174.94;;;-5.72;100.00
35443;BME280;21561;55.654;37.592;2022-12-18T09:51:21;99171.47;;;-5.74;100.00
35443;BME280;21561;55.654;37.592;2022-12-18T09:54:12;99172.50;;;-5.70;100.00
35443;BME280;21561;55.654;37.592;2022-12-18T09:56:41;99174.63;;;-5.78;100.00
35443;BME280;21561;55.654;37.592;2022-12-18T09:59:22;99154.84;;;-5.69;100.00
35443;BME280;21561;55.654;37.592;2022-12-18T10:01:50;99180.56;;;-5.78;100.00
35443;BME280;21561;55.654;37.592;2022-12-18T10:04:17;99164.84;;;-5.72;100.00
35443;BME280;21561;55.654;37.592;2022-12-18T10:07:08;99179.19;;;-5.71;100.00
35443;BME280;21561;55.654;37.592;2022-12-18T10:17:56;99188.38;;;-5.73;100.00
35443;BME280;21561;55.654;37.592;2022-12-18T10:20:45;99190.13;;;-5.72;100.00
35443;BME280;21561;55.654;37.592;2022-12-18T10:28:30;99178.41;;;-5.70;100.00
35443;BME280;21561;55.654;37.592;2022-12-18T10:30:58;99189.94;;;-5.75;100.00
35443;BME280;21561;55.654;37.592;2022-12-18T10:33:30;99183.22;;;-5.75;100.00
35443;BME280;21561;55.654;37.592;2022-12-18T10:35:58;99203.22;;;-5.79;100.00
35443;BME280;21561;55.654;37.592;2022-12-18T10:38:30;99182.22;;;-5.78;100.00
35443;BME280;21561;55.654;37.592;2022-12-18T10:43:40;99209.72;;;-5.84;100.00
35443;BME280;21561;55.654;37.592;2022-12-18T10:46:17;99213.94;;;-5.83;100.00
35443;BME280;21561;55.654;37.592;2022-12-18T10:51:28;99233.22;;;-5.85;100.00
35443;BME280;21561;55.654;37.592;2022-12-18T10:54:01;99238.28;;;-5.85;100.00
35443;BME280;21561;55.654;37.592;2022-12-18T10:59:51;99254.09;;;-5.89;100.00
35443;BME280;21561;55.654;37.592;2022-12-18T11:02:28;99253.31;;;-5.88;100.00
35443;BME280;21561;55.654;37.592;2022-12-18T11:04:55;99264.84;;;-5.93;100.00
35443;BME280;21561;55.654;37.592;2022-12-18T11:07:22;99273.28;;;-5.93;100.00
35443;BME280;21561;55.654;37.592;2022-12-18T11:10:00;99273.34;;;-5.91;100.00
35443;BME280;21561;55.654;37.592;2022-12-18T11:12:30;99262.94;;;-5.98;100.00
35443;BME280;21561;55.654;37.592;2022-12-18T11:14:58;99262.81;;;-6.01;100.00
35443;BME280;21561;55.654;37.592;2022-12-18T11:17:32;99266.09;;;-6.02;100.00
35443;BME280;21561;55.654;37.592;2022-12-18T11:20:02;99262.47;;;-6.07;100.00
35443;BME280;21561;55.654;37.592;2022-12-18T11:22:32;99272.75;;;-6.04;100.00
35443;BME280;21561;55.654;37.592;2022-12-18T11:27:58;99274.31;;;-6.06;100.00
35443;BME280;21561;55.654;37.592;2022-12-18T11:30:34;99277.31;;;-6.13;100.00
35443;BME280;21561;55.654;37.592;2022-12-18T11:33:16;99262.31;;;-6.10;100.00
35443;BME280;21561;55.654;37.592;2022-12-18T11:38:26;99290.97;;;-6.09;100.00
35443;BME280;21561;55.654;37.592;2022-12-18T11:41:16;99284.25;;;-6.09;100.00
35443;BME280;21561;55.654;37.592;2022-12-18T11:43:59;99297.69;;;-6.10;100.00
35443;BME280;21561;55.654;37.592;2022-12-18T11:46:39;99287.91;;;-6.04;100.00
35443;BME280;21561;55.654;37.592;2022-12-18T11:49:15;99302.75;;;-6.10;100.00
35443;BME280;21561;55.654;37.592;2022-12-18T11:51:57;99309.34;;;-6.12;100.00
35443;BME280;21561;55.654;37.592;2022-12-18T11:54:25;99315.97;;;-6.14;100.00
35443;BME280;21561;55.654;37.592;2022-12-18T11:56:56;99324.84;;;-6.06;100.00
35443;BME280;21561;55.654;37.592;2022-12-18T12:07:45;99342.75;;;-6.01;100.00
35443;BME280;21561;55.654;37.592;2022-12-18T12:16:00;99376.94;;;-6.08;100.00
35443;BME280;21561;55.654;37.592;2022-12-18T12:33:08;99383.25;;;-6.00;100.00
35443;BME280;21561;55.654;37.592;2022-12-18T12:35:44;99401.50;;;-6.05;100.00
35443;BME280;21561;55.654;37.592;2022-12-18T12:38:17;99394.88;;;-6.03;100.00
35443;BME280;21561;55.654;37.592;2022-12-18T12:40:56;99407.59;;;-6.02;100.00
35443;BME280;21561;55.654;37.592;2022-12-18T12:43:47;99406.53;;;-6.05;100.00
35443;BME280;21561;55.654;37.592;2022-12-18T12:46:19;99418.94;;;-6.10;100.00
35443;BME280;21561;55.654;37.592;2022-12-18T12:48:56;99411.06;;;-6.00;100.00
35443;BME280;21561;55.654;37.592;2022-12-18T12:51:27;99430.78;;;-6.09;100.00
35443;BME280;21561;55.654;37.592;2022-12-18T12:53:59;99430.78;;;-6.09;100.00
35443;BME280;21561;55.654;37.592;2022-12-18T12:56:38;99444.72;;;-6.01;100.00
35443;BME280;21561;55.654;37.592;2022-12-18T13:02:13;99452.72;;;-6.08;100.00
35443;BME280;21561;55.654;37.592;2022-12-18T13:08:03;99470.84;;;-6.00;100.00
35443;BME280;21561;55.654;37.592;2022-12-18T13:10:41;99454.63;;;-6.04;100.00
35443;BME280;21561;55.654;37.592;2022-12-18T13:13:13;99470.13;;;-5.98;100.00
35443;BME280;21561;55.654;37.592;2022-12-18T13:16:04;99453.88;;;-5.86;100.00
35443;BME280;21561;55.654;37.592;2022-12-18T13:18:32;99475.69;;;-5.88;100.00
35443;BME280;21561;55.654;37.592;2022-12-18T13:23:36;99457.69;;;-5.78;100.00
35443;BME280;21561;55.654;37.592;2022-12-18T13:33:44;99522.00;;;-5.73;100.00
35443;BME280;21561;55.654;37.592;2022-12-18T13:36:33;99512.94;;;-5.69;100.00
35443;BME280;21561;55.654;37.592;2022-12-18T13:41:52;99505.09;;;-5.74;100.00
35443;BME280;21561;55.654;37.592;2022-12-18T13:47:32;99523.75;;;-5.72;100.00
35443;BME280;21561;55.654;37.592;2022-12-18T13:50:02;99540.66;;;-5.71;100.00
35443;BME280;21561;55.654;37.592;2022-12-18T13:52:39;99555.38;;;-5.64;100.00
35443;BME280;21561;55.654;37.592;2022-12-18T13:55:14;99559.66;;;-5.63;100.00
35443;BME280;21561;55.654;37.592;2022-12-18T13:57:43;99562.00;;;-5.66;100.00
35443;BME280;21561;55.654;37.592;2022-12-18T14:02:49;99562.94;;;-5.64;100.00
35443;BME280;21561;55.654;37.592;2022-12-18T14:05:35;99570.09;;;-5.57;100.00
35443;BME280;21561;55.654;37.592;2022-12-18T14:08:12;99581.59;;;-5.47;100.00
35443;BME280;21561;55.654;37.592;2022-12-18T14:10:41;99573.75;;;-5.51;100.00
35443;BME280;21561;55.654;37.592;2022-12-18T14:13:23;99583.09;;;-5.50;100.00
35443;BME280;21561;55.654;37.592;2022-12-18T14:15:53;99590.06;;;-5.46;100.00
35443;BME280;21561;55.654;37.592;2022-12-18T14:18:43;99587.69;;;-5.43;100.00
35443;BME280;21561;55.654;37.592;2022-12-18T14:21:26;99586.91;;;-5.42;100.00
35443;BME280;21561;55.654;37.592;2022-12-18T14:24:20;99606.91;;;-5.47;100.00
35443;BME280;21561;55.654;37.592;2022-12-18T14:26:49;99606.63;;;-5.51;100.00
35443;BME280;21561;55.654;37.592;2022-12-18T14:34:51;99618.94;;;-5.58;100.00
35443;BME280;21561;55.654;37.592;2022-12-18T14:37:22;99629.47;;;-5.65;100.00
35443;BME280;21561;55.654;37.592;2022-12-18T14:39:56;99642.13;;;-5.65;100.00
35443;BME280;21561;55.654;37.592;2022-12-18T14:42:24;99645.75;;;-5.75;100.00
35443;BME280;21561;55.654;37.592;2022-12-18T14:48:44;99661.22;;;-5.70;100.00
35443;BME280;21561;55.654;37.592;2022-12-18T14:51:17;99653.25;;;-5.76;100.00
35443;BME280;21561;55.654;37.592;2022-12-18T14:53:47;99663.22;;;-5.79;100.00
35443;BME280;21561;55.654;37.592;2022-12-18T14:56:21;99674.00;;;-5.82;100.00
35443;BME280;21561;55.654;37.592;2022-12-18T14:58:53;99678.38;;;-5.79;100.00